Portada
METAR-TAF:

METAR-TAF

Aeroports :

Normanton, Austràlia

latitud: 17-41-06S, longitud: 141-04-12E, altitud: 22 m

Observació

L'informe es va fer fa 1 hora i 19 minuts, a les 16:00 UTC
Vent 6 kt del Sud-Oest
Temperatura 23°C
Humitat 69%
Pressió 1015 hPa
Visibilitat 10 km o més

METAR: YNTN 211600Z AUTO 23006KT 9999 // NCD 23/17 Q1015

Hora: 03:19 (17:19 UTC)


TAF: manca

Observacions i pronòstics meteorològics de més de 4000 aeroports (METAR i TAF).

Les estacions disponibles són els punts grocs i vermells al mapa.

Posi el ratolí al punt desitjat per veure el nom de l'estació.

Feu clic per veure les observacions i els pronòstics meteorològics.

Per canviar el mapa: feu clic els botons verds amb una creu de color negre per apropar; al botó verd amb un guió per allunyar la imatge; o en les fletxes verdes per a mapes adjacents.


METAR-TAF: